15:14
Airports
History
Links
Donate
Help keep this website running!
PayPal
Bitcoin
This page is community maintained. The information is intended for PC simulator navigation or reference.
Always use approved charts for navigation.
SNAO
TrimonteEdited 12-Sep-2012
Trimonte (SNAO)
Casimiro de Abreu, Rio de Janeiro, Brazil (28860)
(U)
Lat/Lng:22° 30' 45" S / 42° 3' 4" W
-22.5125 / -42.051111
Elevation:10'ft / 3mMSL
ID / ICAO:SNAO
Runways:1
Longest:08-26
Asphalt 805m / 2,640ft
(Edited 2012-09-12) [ Sign in to Edit ]
Nearby Weather13:00 GMT 2018-01-16
Nearby weather at SBES, SAO PEDRO DA ALDEIA located 20.9 nautical miles from SNAO
Altimeter: 29.97
Visibility: 6.2 statute miles
Wind: 6 knots (from 220°)
Temp: 31°c / 88°f
Humidity: 58.9%

METAR: SBES 161300Z 22006KT CAVOK 31/22 Q1015

(Powered by phpweather)
Runway 08 / 26
Dimensions:804.7 x 18m 2640' x 59'ft
Surface:Asphalt
Runway 08 [A]Runway 26 [B]
Heading:055°TH 235°TH
Lat:
Lng:
22° 30' 52.48"S
42° 3' 15.65"W
22° 30' 37.52"S
42° 2' 52.35"W
(Edited 2012-09-12) [ Sign in to Edit ]
User Notes and Comments
22° 30' 45" S / 42° 3' 4" W
Distance To
Airport ID:
Nearby Airports
(U) Brig. Francisco Pinto de Moura 5.0 NM
SDCU SW 234°
4 Fazenda Tosana 6.2 NM
SDLN SSE 166°
(U) UMBERTO MODIANO 18.7 NM
SBBZ SSE 162°
(C) SAO PEDRO DA ALDEIA 20.9 NM
SBES ( WX ) S 187°
(C) MACAE 21.6 NM
SBME ( WX ) ENE 57°
(U) CABO FRIO 28.3 NM
SBCB S 182°
4 Saquarema 40.9 NM
SDSK SW 225°
VFR Chart
Flight Planning at SkyVector.com